sensor_id;sensor_type;location;lat;lon;timestamp;P1;durP1;ratioP1;P2;durP2;ratioP2
20150;SDS011;10236;49.638;6.830;2022-12-18T00:01:37;16.07;;;8.03;;
20150;SDS011;10236;49.638;6.830;2022-12-18T00:04:04;13.83;;;7.47;;
20150;SDS011;10236;49.638;6.830;2022-12-18T00:06:30;13.27;;;7.43;;
20150;SDS011;10236;49.638;6.830;2022-12-18T00:08:57;13.40;;;6.67;;
20150;SDS011;10236;49.638;6.830;2022-12-18T00:11:25;11.87;;;6.23;;
20150;SDS011;10236;49.638;6.830;2022-12-18T00:13:52;10.03;;;5.83;;
20150;SDS011;10236;49.638;6.830;2022-12-18T00:16:23;10.90;;;5.73;;
20150;SDS011;10236;49.638;6.830;2022-12-18T00:18:50;12.20;;;6.13;;
20150;SDS011;10236;49.638;6.830;2022-12-18T00:21:17;11.20;;;5.97;;
20150;SDS011;10236;49.638;6.830;2022-12-18T00:23:43;9.20;;;5.20;;
20150;SDS011;10236;49.638;6.830;2022-12-18T00:26:11;11.03;;;5.63;;
20150;SDS011;10236;49.638;6.830;2022-12-18T00:28:37;8.53;;;5.57;;
20150;SDS011;10236;49.638;6.830;2022-12-18T00:31:04;9.10;;;5.60;;
20150;SDS011;10236;49.638;6.830;2022-12-18T00:33:31;9.60;;;5.17;;
20150;SDS011;10236;49.638;6.830;2022-12-18T00:36:03;10.37;;;5.63;;
20150;SDS011;10236;49.638;6.830;2022-12-18T00:38:30;10.57;;;6.40;;
20150;SDS011;10236;49.638;6.830;2022-12-18T00:40:56;10.13;;;5.70;;
20150;SDS011;10236;49.638;6.830;2022-12-18T00:43:22;9.40;;;5.90;;
20150;SDS011;10236;49.638;6.830;2022-12-18T00:45:48;12.07;;;6.57;;
20150;SDS011;10236;49.638;6.830;2022-12-18T00:48:14;8.93;;;5.73;;
20150;SDS011;10236;49.638;6.830;2022-12-18T00:50:40;9.93;;;5.50;;
20150;SDS011;10236;49.638;6.830;2022-12-18T00:53:06;10.63;;;5.93;;
20150;SDS011;10236;49.638;6.830;2022-12-18T00:55:36;8.63;;;5.53;;
20150;SDS011;10236;49.638;6.830;2022-12-18T00:58:02;9.70;;;5.60;;
20150;SDS011;10236;49.638;6.830;2022-12-18T01:00:28;11.93;;;6.40;;
20150;SDS011;10236;49.638;6.830;2022-12-18T01:02:54;8.97;;;5.50;;
20150;SDS011;10236;49.638;6.830;2022-12-18T01:05:20;9.60;;;5.50;;
20150;SDS011;10236;49.638;6.830;2022-12-18T01:07:46;11.23;;;5.93;;
20150;SDS011;10236;49.638;6.830;2022-12-18T01:10:12;12.17;;;6.43;;
20150;SDS011;10236;49.638;6.830;2022-12-18T01:12:38;9.40;;;6.03;;
20150;SDS011;10236;49.638;6.830;2022-12-18T01:15:05;10.60;;;6.57;;
20150;SDS011;10236;49.638;6.830;2022-12-18T01:17:34;9.70;;;6.47;;
20150;SDS011;10236;49.638;6.830;2022-12-18T01:20:05;12.27;;;6.20;;
20150;SDS011;10236;49.638;6.830;2022-12-18T01:22:31;10.63;;;5.97;;
20150;SDS011;10236;49.638;6.830;2022-12-18T01:24:57;11.10;;;5.93;;
20150;SDS011;10236;49.638;6.830;2022-12-18T01:27:26;13.97;;;6.37;;
20150;SDS011;10236;49.638;6.830;2022-12-18T01:29:52;10.10;;;5.83;;
20150;SDS011;10236;49.638;6.830;2022-12-18T01:32:18;10.37;;;6.17;;
20150;SDS011;10236;49.638;6.830;2022-12-18T01:34:44;9.73;;;6.10;;
20150;SDS011;10236;49.638;6.830;2022-12-18T01:37:10;9.20;;;5.97;;
20150;SDS011;10236;49.638;6.830;2022-12-18T01:39:36;9.70;;;6.20;;
20150;SDS011;10236;49.638;6.830;2022-12-18T01:42:02;11.77;;;6.20;;
20150;SDS011;10236;49.638;6.830;2022-12-18T01:47:15;11.67;;;6.73;;
20150;SDS011;10236;49.638;6.830;2022-12-18T01:49:41;12.17;;;6.93;;
20150;SDS011;10236;49.638;6.830;2022-12-18T01:52:07;11.03;;;6.77;;
20150;SDS011;10236;49.638;6.830;2022-12-18T01:54:33;12.43;;;6.73;;
20150;SDS011;10236;49.638;6.830;2022-12-18T01:56:59;10.50;;;6.20;;
20150;SDS011;10236;49.638;6.830;2022-12-18T01:59:26;13.93;;;7.30;;
20150;SDS011;10236;49.638;6.830;2022-12-18T02:01:53;12.27;;;6.27;;
20150;SDS011;10236;49.638;6.830;2022-12-18T02:04:23;13.67;;;7.50;;
20150;SDS011;10236;49.638;6.830;2022-12-18T02:07:07;11.47;;;6.73;;
20150;SDS011;10236;49.638;6.830;2022-12-18T02:09:46;11.30;;;6.57;;
20150;SDS011;10236;49.638;6.830;2022-12-18T02:12:16;11.83;;;7.10;;
20150;SDS011;10236;49.638;6.830;2022-12-18T02:14:45;11.27;;;6.83;;
20150;SDS011;10236;49.638;6.830;2022-12-18T02:17:17;9.37;;;5.67;;
20150;SDS011;10236;49.638;6.830;2022-12-18T02:27:16;9.43;;;6.33;;
20150;SDS011;10236;49.638;6.830;2022-12-18T02:29:48;12.20;;;5.70;;
20150;SDS011;10236;49.638;6.830;2022-12-18T02:32:18;11.40;;;6.20;;
20150;SDS011;10236;49.638;6.830;2022-12-18T02:34:44;10.30;;;6.13;;
20150;SDS011;10236;49.638;6.830;2022-12-18T02:37:14;12.43;;;7.30;;
20150;SDS011;10236;49.638;6.830;2022-12-18T02:39:44;12.60;;;7.10;;
20150;SDS011;10236;49.638;6.830;2022-12-18T02:47:56;13.77;;;7.37;;
20150;SDS011;10236;49.638;6.830;2022-12-18T02:50:26;14.73;;;8.30;;
20150;SDS011;10236;49.638;6.830;2022-12-18T02:56:03;14.47;;;7.93;;
20150;SDS011;10236;49.638;6.830;2022-12-18T03:06:45;15.77;;;9.00;;
20150;SDS011;10236;49.638;6.830;2022-12-18T03:09:34;15.03;;;8.20;;
20150;SDS011;10236;49.638;6.830;2022-12-18T03:12:01;13.83;;;8.13;;
20150;SDS011;10236;49.638;6.830;2022-12-18T03:17:54;14.20;;;7.40;;
20150;SDS011;10236;49.638;6.830;2022-12-18T03:20:39;12.03;;;7.03;;
20150;SDS011;10236;49.638;6.830;2022-12-18T03:23:17;10.70;;;7.13;;
20150;SDS011;10236;49.638;6.830;2022-12-18T03:26:02;15.00;;;7.77;;
20150;SDS011;10236;49.638;6.830;2022-12-18T03:28:34;13.60;;;7.50;;
20150;SDS011;10236;49.638;6.830;2022-12-18T03:31:02;14.87;;;8.93;;
20150;SDS011;10236;49.638;6.830;2022-12-18T03:33:41;17.83;;;9.70;;
20150;SDS011;10236;49.638;6.830;2022-12-18T03:36:26;15.60;;;9.37;;
20150;SDS011;10236;49.638;6.830;2022-12-18T03:38:53;16.23;;;9.73;;
20150;SDS011;10236;49.638;6.830;2022-12-18T03:41:31;16.40;;;8.83;;
20150;SDS011;10236;49.638;6.830;2022-12-18T03:44:08;17.50;;;10.30;;
20150;SDS011;10236;49.638;6.830;2022-12-18T03:46:40;19.37;;;10.50;;
20150;SDS011;10236;49.638;6.830;2022-12-18T03:49:20;17.63;;;10.30;;
20150;SDS011;10236;49.638;6.830;2022-12-18T03:54:41;18.73;;;10.03;;
20150;SDS011;10236;49.638;6.830;2022-12-18T03:57:16;14.40;;;8.67;;
20150;SDS011;10236;49.638;6.830;2022-12-18T03:59:43;14.90;;;8.90;;
20150;SDS011;10236;49.638;6.830;2022-12-18T04:02:17;13.20;;;7.60;;
20150;SDS011;10236;49.638;6.830;2022-12-18T04:04:54;13.83;;;8.03;;
20150;SDS011;10236;49.638;6.830;2022-12-18T04:07:27;14.53;;;8.10;;
20150;SDS011;10236;49.638;6.830;2022-12-18T04:10:05;14.67;;;8.70;;
20150;SDS011;10236;49.638;6.830;2022-12-18T04:12:32;16.40;;;9.53;;
20150;SDS011;10236;49.638;6.830;2022-12-18T04:14:58;16.27;;;9.60;;
20150;SDS011;10236;49.638;6.830;2022-12-18T04:17:27;18.23;;;11.33;;
20150;SDS011;10236;49.638;6.830;2022-12-18T04:19:55;18.70;;;10.87;;
20150;SDS011;10236;49.638;6.830;2022-12-18T04:22:39;19.50;;;12.03;;
20150;SDS011;10236;49.638;6.830;2022-12-18T04:25:14;19.73;;;11.40;;
20150;SDS011;10236;49.638;6.830;2022-12-18T04:27:42;18.93;;;11.13;;
20150;SDS011;10236;49.638;6.830;2022-12-18T04:30:14;18.90;;;11.47;;
20150;SDS011;10236;49.638;6.830;2022-12-18T04:32:46;18.43;;;10.77;;
20150;SDS011;10236;49.638;6.830;2022-12-18T04:35:15;19.57;;;11.47;;
20150;SDS011;10236;49.638;6.830;2022-12-18T04:37:51;20.77;;;11.07;;
20150;SDS011;10236;49.638;6.830;2022-12-18T04:40:22;19.03;;;11.20;;
20150;SDS011;10236;49.638;6.830;2022-12-18T04:42:51;20.10;;;11.40;;
20150;SDS011;10236;49.638;6.830;2022-12-18T04:45:22;17.67;;;10.83;;
20150;SDS011;10236;49.638;6.830;2022-12-18T04:48:07;19.60;;;10.87;;
20150;SDS011;10236;49.638;6.830;2022-12-18T04:50:33;18.97;;;11.43;;
20150;SDS011;10236;49.638;6.830;2022-12-18T04:53:02;20.63;;;11.53;;
20150;SDS011;10236;49.638;6.830;2022-12-18T04:55:30;19.63;;;11.00;;
20150;SDS011;10236;49.638;6.830;2022-12-18T04:58:01;19.63;;;11.00;;
20150;SDS011;10236;49.638;6.830;2022-12-18T05:00:43;21.30;;;12.40;;
20150;SDS011;10236;49.638;6.830;2022-12-18T05:03:14;20.30;;;10.50;;
20150;SDS011;10236;49.638;6.830;2022-12-18T05:08:28;19.53;;;10.83;;
20150;SDS011;10236;49.638;6.830;2022-12-18T05:11:01;20.47;;;11.23;;
20150;SDS011;10236;49.638;6.830;2022-12-18T05:13:27;21.67;;;12.17;;
20150;SDS011;10236;49.638;6.830;2022-12-18T05:16:01;19.50;;;11.60;;
20150;SDS011;10236;49.638;6.830;2022-12-18T05:18:27;19.63;;;11.77;;
20150;SDS011;10236;49.638;6.830;2022-12-18T05:21:01;20.13;;;11.03;;
20150;SDS011;10236;49.638;6.830;2022-12-18T05:23:43;19.60;;;11.50;;
20150;SDS011;10236;49.638;6.830;2022-12-18T05:26:14;24.43;;;12.60;;
20150;SDS011;10236;49.638;6.830;2022-12-18T05:28:43;20.50;;;12.00;;
20150;SDS011;10236;49.638;6.830;2022-12-18T05:31:15;23.77;;;12.67;;
20150;SDS011;10236;49.638;6.830;2022-12-18T05:33:44;20.80;;;11.60;;
20150;SDS011;10236;49.638;6.830;2022-12-18T05:36:16;22.83;;;12.07;;
20150;SDS011;10236;49.638;6.830;2022-12-18T05:38:42;21.77;;;11.53;;
20150;SDS011;10236;49.638;6.830;2022-12-18T05:41:10;19.23;;;12.17;;
20150;SDS011;10236;49.638;6.830;2022-12-18T05:43:42;20.57;;;12.20;;
20150;SDS011;10236;49.638;6.830;2022-12-18T05:46:24;18.93;;;11.37;;
20150;SDS011;10236;49.638;6.830;2022-12-18T05:48:50;24.17;;;12.60;;
20150;SDS011;10236;49.638;6.830;2022-12-18T05:51:27;22.63;;;11.60;;
20150;SDS011;10236;49.638;6.830;2022-12-18T05:54:01;21.83;;;12.20;;
20150;SDS011;10236;49.638;6.830;2022-12-18T05:56:29;19.07;;;11.97;;
20150;SDS011;10236;49.638;6.830;2022-12-18T05:58:58;21.30;;;12.90;;
20150;SDS011;10236;49.638;6.830;2022-12-18T06:01:29;23.57;;;12.93;;
20150;SDS011;10236;49.638;6.830;2022-12-18T06:04:11;22.07;;;12.17;;
20150;SDS011;10236;49.638;6.830;2022-12-18T06:06:44;24.83;;;13.13;;
20150;SDS011;10236;49.638;6.830;2022-12-18T06:09:13;23.20;;;13.40;;
20150;SDS011;10236;49.638;6.830;2022-12-18T06:11:42;20.87;;;12.37;;
20150;SDS011;10236;49.638;6.830;2022-12-18T06:14:15;22.93;;;13.37;;
20150;SDS011;10236;49.638;6.830;2022-12-18T06:16:44;21.30;;;12.43;;
20150;SDS011;10236;49.638;6.830;2022-12-18T06:19:13;24.77;;;13.77;;
20150;SDS011;10236;49.638;6.830;2022-12-18T06:21:40;26.53;;;13.83;;
20150;SDS011;10236;49.638;6.830;2022-12-18T06:24:17;22.93;;;13.60;;
20150;SDS011;10236;49.638;6.830;2022-12-18T06:26:45;22.47;;;13.17;;
20150;SDS011;10236;49.638;6.830;2022-12-18T06:29:17;22.67;;;12.60;;
20150;SDS011;10236;49.638;6.830;2022-12-18T06:31:51;21.60;;;13.07;;
20150;SDS011;10236;49.638;6.830;2022-12-18T06:34:20;21.87;;;13.70;;
20150;SDS011;10236;49.638;6.830;2022-12-18T06:36:46;25.30;;;14.30;;
20150;SDS011;10236;49.638;6.830;2022-12-18T06:39:30;19.47;;;12.73;;
20150;SDS011;10236;49.638;6.830;2022-12-18T06:42:17;27.50;;;14.40;;
20150;SDS011;10236;49.638;6.830;2022-12-18T06:44:46;24.53;;;13.43;;
20150;SDS011;10236;49.638;6.830;2022-12-18T06:47:26;25.03;;;13.53;;
20150;SDS011;10236;49.638;6.830;2022-12-18T06:49:54;21.43;;;13.37;;
20150;SDS011;10236;49.638;6.830;2022-12-18T06:52:23;27.20;;;14.60;;
20150;SDS011;10236;49.638;6.830;2022-12-18T06:54:55;25.03;;;13.93;;
20150;SDS011;10236;49.638;6.830;2022-12-18T06:57:31;24.93;;;14.67;;
20150;SDS011;10236;49.638;6.830;2022-12-18T07:00:04;33.93;;;18.77;;
20150;SDS011;10236;49.638;6.830;2022-12-18T07:02:39;29.80;;;16.97;;
20150;SDS011;10236;49.638;6.830;2022-12-18T07:05:11;25.57;;;15.27;;
20150;SDS011;10236;49.638;6.830;2022-12-18T07:07:40;26.23;;;14.43;;
20150;SDS011;10236;49.638;6.830;2022-12-18T07:10:08;24.60;;;13.93;;
20150;SDS011;10236;49.638;6.830;2022-12-18T07:12:40;24.87;;;15.47;;
20150;SDS011;10236;49.638;6.830;2022-12-18T07:15:11;24.77;;;14.17;;
20150;SDS011;10236;49.638;6.830;2022-12-18T07:17:43;22.93;;;13.63;;
20150;SDS011;10236;49.638;6.830;2022-12-18T07:20:12;24.57;;;14.60;;
20150;SDS011;10236;49.638;6.830;2022-12-18T07:22:43;24.77;;;14.77;;
20150;SDS011;10236;49.638;6.830;2022-12-18T07:25:12;22.47;;;13.50;;
20150;SDS011;10236;49.638;6.830;2022-12-18T07:28:01;21.40;;;14.07;;
20150;SDS011;10236;49.638;6.830;2022-12-18T07:30:48;25.67;;;14.57;;
20150;SDS011;10236;49.638;6.830;2022-12-18T07:33:17;23.80;;;14.50;;
20150;SDS011;10236;49.638;6.830;2022-12-18T07:35:46;24.13;;;13.23;;
20150;SDS011;10236;49.638;6.830;2022-12-18T07:38:18;21.20;;;13.17;;
20150;SDS011;10236;49.638;6.830;2022-12-18T07:40:50;23.50;;;14.00;;
20150;SDS011;10236;49.638;6.830;2022-12-18T07:43:29;23.87;;;14.23;;
20150;SDS011;10236;49.638;6.830;2022-12-18T07:45:55;25.20;;;14.40;;
20150;SDS011;10236;49.638;6.830;2022-12-18T07:48:21;25.03;;;13.67;;
20150;SDS011;10236;49.638;6.830;2022-12-18T07:50:50;27.70;;;15.80;;
20150;SDS011;10236;49.638;6.830;2022-12-18T07:53:18;27.83;;;15.70;;
20150;SDS011;10236;49.638;6.830;2022-12-18T07:55:54;33.40;;;17.13;;
20150;SDS011;10236;49.638;6.830;2022-12-18T07:58:32;25.87;;;14.47;;
20150;SDS011;10236;49.638;6.830;2022-12-18T08:03:30;25.00;;;13.57;;
20150;SDS011;10236;49.638;6.830;2022-12-18T08:08:48;24.37;;;14.13;;
20150;SDS011;10236;49.638;6.830;2022-12-18T08:11:22;24.50;;;14.20;;
20150;SDS011;10236;49.638;6.830;2022-12-18T08:13:54;23.77;;;13.83;;
20150;SDS011;10236;49.638;6.830;2022-12-18T08:16:22;25.27;;;14.17;;
20150;SDS011;10236;49.638;6.830;2022-12-18T08:18:57;23.97;;;13.97;;
20150;SDS011;10236;49.638;6.830;2022-12-18T08:21:27;24.17;;;14.07;;
20150;SDS011;10236;49.638;6.830;2022-12-18T08:24:01;28.50;;;14.87;;
20150;SDS011;10236;49.638;6.830;2022-12-18T08:26:30;26.13;;;14.53;;
20150;SDS011;10236;49.638;6.830;2022-12-18T08:28:57;24.03;;;13.27;;
20150;SDS011;10236;49.638;6.830;2022-12-18T08:31:42;22.50;;;13.80;;
20150;SDS011;10236;49.638;6.830;2022-12-18T08:34:30;24.43;;;14.20;;
20150;SDS011;10236;49.638;6.830;2022-12-18T08:36:56;23.33;;;14.23;;
20150;SDS011;10236;49.638;6.830;2022-12-18T08:39:51;28.50;;;16.73;;
20150;SDS011;10236;49.638;6.830;2022-12-18T08:42:26;25.97;;;15.13;;
20150;SDS011;10236;49.638;6.830;2022-12-18T08:45:17;23.47;;;14.43;;
20150;SDS011;10236;49.638;6.830;2022-12-18T08:47:43;24.10;;;14.93;;
20150;SDS011;10236;49.638;6.830;2022-12-18T08:50:09;27.23;;;15.33;;
20150;SDS011;10236;49.638;6.830;2022-12-18T08:52:36;28.67;;;15.20;;
20150;SDS011;10236;49.638;6.830;2022-12-18T08:55:02;29.83;;;16.47;;
20150;SDS011;10236;49.638;6.830;2022-12-18T08:57:29;29.07;;;16.23;;
20150;SDS011;10236;49.638;6.830;2022-12-18T08:59:55;29.57;;;16.10;;
20150;SDS011;10236;49.638;6.830;2022-12-18T09:02:21;28.67;;;15.13;;
20150;SDS011;10236;49.638;6.830;2022-12-18T09:04:47;28.07;;;15.17;;
20150;SDS011;10236;49.638;6.830;2022-12-18T09:07:13;26.37;;;14.93;;
20150;SDS011;10236;49.638;6.830;2022-12-18T09:09:39;28.97;;;15.83;;
20150;SDS011;10236;49.638;6.830;2022-12-18T09:12:05;30.23;;;16.77;;
20150;SDS011;10236;49.638;6.830;2022-12-18T09:14:35;27.17;;;16.53;;
20150;SDS011;10236;49.638;6.830;2022-12-18T09:17:01;23.90;;;14.13;;
20150;SDS011;10236;49.638;6.830;2022-12-18T09:19:30;27.67;;;16.00;;
20150;SDS011;10236;49.638;6.830;2022-12-18T09:21:56;27.17;;;15.67;;
20150;SDS011;10236;49.638;6.830;2022-12-18T09:24:22;28.57;;;15.43;;
20150;SDS011;10236;49.638;6.830;2022-12-18T09:26:48;28.10;;;16.13;;
20150;SDS011;10236;49.638;6.830;2022-12-18T09:29:15;26.67;;;15.70;;
20150;SDS011;10236;49.638;6.830;2022-12-18T09:31:46;25.43;;;15.13;;
20150;SDS011;10236;49.638;6.830;2022-12-18T09:34:15;30.20;;;16.73;;
20150;SDS011;10236;49.638;6.830;2022-12-18T09:36:42;26.30;;;15.23;;
20150;SDS011;10236;49.638;6.830;2022-12-18T09:39:08;29.20;;;16.37;;
20150;SDS011;10236;49.638;6.830;2022-12-18T09:41:39;27.23;;;15.83;;
20150;SDS011;10236;49.638;6.830;2022-12-18T09:44:17;30.70;;;17.10;;
20150;SDS011;10236;49.638;6.830;2022-12-18T09:46:49;28.37;;;17.00;;
20150;SDS011;10236;49.638;6.830;2022-12-18T09:49:18;27.77;;;15.50;;
20150;SDS011;10236;49.638;6.830;2022-12-18T09:51:50;26.90;;;15.40;;
20150;SDS011;10236;49.638;6.830;2022-12-18T09:54:22;27.00;;;16.30;;
20150;SDS011;10236;49.638;6.830;2022-12-18T09:56:49;25.60;;;14.60;;
20150;SDS011;10236;49.638;6.830;2022-12-18T09:59:20;28.47;;;16.17;;
20150;SDS011;10236;49.638;6.830;2022-12-18T10:01:47;26.10;;;15.43;;
20150;SDS011;10236;49.638;6.830;2022-12-18T10:04:13;27.97;;;15.23;;
20150;SDS011;10236;49.638;6.830;2022-12-18T10:14:34;24.17;;;14.50;;
20150;SDS011;10236;49.638;6.830;2022-12-18T10:26:55;32.20;;;17.63;;
20150;SDS011;10236;49.638;6.830;2022-12-18T10:29:25;28.10;;;16.53;;
20150;SDS011;10236;49.638;6.830;2022-12-18T10:31:51;32.63;;;18.80;;
20150;SDS011;10236;49.638;6.830;2022-12-18T10:34:17;29.70;;;17.50;;
20150;SDS011;10236;49.638;6.830;2022-12-18T10:36:43;30.87;;;15.70;;
20150;SDS011;10236;49.638;6.830;2022-12-18T10:39:18;27.33;;;16.07;;
20150;SDS011;10236;49.638;6.830;2022-12-18T10:41:49;27.87;;;16.10;;
20150;SDS011;10236;49.638;6.830;2022-12-18T10:46:48;27.13;;;15.90;;
20150;SDS011;10236;49.638;6.830;2022-12-18T10:49:18;27.87;;;15.93;;
20150;SDS011;10236;49.638;6.830;2022-12-18T10:51:45;27.80;;;17.13;;
20150;SDS011;10236;49.638;6.830;2022-12-18T10:54:15;25.70;;;16.13;;
20150;SDS011;10236;49.638;6.830;2022-12-18T10:56:45;28.80;;;17.17;;
20150;SDS011;10236;49.638;6.830;2022-12-18T10:59:12;27.80;;;15.90;;
20150;SDS011;10236;49.638;6.830;2022-12-18T11:01:52;27.63;;;16.67;;
20150;SDS011;10236;49.638;6.830;2022-12-18T11:04:27;27.70;;;16.07;;
20150;SDS011;10236;49.638;6.830;2022-12-18T11:07:03;28.60;;;16.67;;
20150;SDS011;10236;49.638;6.830;2022-12-18T11:09:30;30.17;;;17.30;;
20150;SDS011;10236;49.638;6.830;2022-12-18T11:14:42;27.77;;;17.30;;
20150;SDS011;10236;49.638;6.830;2022-12-18T11:17:22;27.80;;;17.87;;
20150;SDS011;10236;49.638;6.830;2022-12-18T11:19:54;29.07;;;17.63;;
20150;SDS011;10236;49.638;6.830;2022-12-18T11:25:00;26.37;;;15.87;;
20150;SDS011;10236;49.638;6.830;2022-12-18T11:27:27;26.57;;;16.33;;
20150;SDS011;10236;49.638;6.830;2022-12-18T11:30:06;28.93;;;17.60;;
20150;SDS011;10236;49.638;6.830;2022-12-18T11:32:34;29.93;;;16.73;;
20150;SDS011;10236;49.638;6.830;2022-12-18T11:37:29;27.50;;;17.07;;
20150;SDS011;10236;49.638;6.830;2022-12-18T11:39:59;30.40;;;17.53;;
20150;SDS011;10236;49.638;6.830;2022-12-18T11:42:38;28.17;;;16.73;;
20150;SDS011;10236;49.638;6.830;2022-12-18T11:50:21;27.93;;;17.17;;
20150;SDS011;10236;49.638;6.830;2022-12-18T11:52:49;29.17;;;16.67;;
20150;SDS011;10236;49.638;6.830;2022-12-18T11:55:16;25.70;;;17.20;;
20150;SDS011;10236;49.638;6.830;2022-12-18T11:57:58;31.07;;;16.80;;
20150;SDS011;10236;49.638;6.830;2022-12-18T12:00:28;27.90;;;16.80;;
20150;SDS011;10236;49.638;6.830;2022-12-18T12:10:53;28.43;;;17.23;;
20150;SDS011;10236;49.638;6.830;2022-12-18T12:16:25;30.07;;;17.00;;
20150;SDS011;10236;49.638;6.830;2022-12-18T12:26:37;34.20;;;19.97;;
20150;SDS011;10236;49.638;6.830;2022-12-18T12:34:50;28.90;;;16.97;;
20150;SDS011;10236;49.638;6.830;2022-12-18T12:39:56;33.43;;;19.33;;
20150;SDS011;10236;49.638;6.830;2022-12-18T12:42:31;31.87;;;18.17;;
20150;SDS011;10236;49.638;6.830;2022-12-18T12:45:21;34.70;;;20.10;;
20150;SDS011;10236;49.638;6.830;2022-12-18T12:47:48;41.17;;;25.00;;
20150;SDS011;10236;49.638;6.830;2022-12-18T12:50:16;68.93;;;33.80;;
20150;SDS011;10236;49.638;6.830;2022-12-18T12:52:53;60.40;;;30.67;;
20150;SDS011;10236;49.638;6.830;2022-12-18T12:55:23;28.23;;;17.00;;
20150;SDS011;10236;49.638;6.830;2022-12-18T13:00:16;30.93;;;19.20;;
20150;SDS011;10236;49.638;6.830;2022-12-18T13:02:50;33.57;;;18.67;;
20150;SDS011;10236;49.638;6.830;2022-12-18T13:05:34;31.00;;;17.70;;
20150;SDS011;10236;49.638;6.830;2022-12-18T13:08:09;32.07;;;17.13;;
20150;SDS011;10236;49.638;6.830;2022-12-18T13:10:37;30.47;;;17.83;;
20150;SDS011;10236;49.638;6.830;2022-12-18T13:15:33;28.63;;;17.37;;
20150;SDS011;10236;49.638;6.830;2022-12-18T13:18:03;29.40;;;17.63;;
20150;SDS011;10236;49.638;6.830;2022-12-18T13:20:34;30.57;;;18.00;;
20150;SDS011;10236;49.638;6.830;2022-12-18T13:23:01;30.07;;;16.93;;
20150;SDS011;10236;49.638;6.830;2022-12-18T13:33:43;30.60;;;17.63;;
20150;SDS011;10236;49.638;6.830;2022-12-18T13:40:58;37.00;;;19.77;;
20150;SDS011;10236;49.638;6.830;2022-12-18T13:43:31;32.17;;;18.83;;
20150;SDS011;10236;49.638;6.830;2022-12-18T13:45:59;31.87;;;18.60;;
20150;SDS011;10236;49.638;6.830;2022-12-18T13:48:26;35.93;;;19.43;;
20150;SDS011;10236;49.638;6.830;2022-12-18T13:51:15;35.73;;;19.63;;
20150;SDS011;10236;49.638;6.830;2022-12-18T13:53:43;33.47;;;18.80;;
20150;SDS011;10236;49.638;6.830;2022-12-18T13:56:15;33.03;;;18.17;;
20150;SDS011;10236;49.638;6.830;2022-12-18T13:58:41;35.40;;;19.70;;
20150;SDS011;10236;49.638;6.830;2022-12-18T14:01:21;35.07;;;18.83;;
20150;SDS011;10236;49.638;6.830;2022-12-18T14:03:47;38.87;;;20.83;;
20150;SDS011;10236;49.638;6.830;2022-12-18T14:06:13;34.77;;;19.93;;
20150;SDS011;10236;49.638;6.830;2022-12-18T14:08:40;37.93;;;19.80;;
20150;SDS011;10236;49.638;6.830;2022-12-18T14:11:06;35.63;;;20.07;;
20150;SDS011;10236;49.638;6.830;2022-12-18T14:13:37;34.07;;;18.97;;
20150;SDS011;10236;49.638;6.830;2022-12-18T14:16:05;38.33;;;21.37;;
20150;SDS011;10236;49.638;6.830;2022-12-18T14:21:04;35.27;;;20.60;;
20150;SDS011;10236;49.638;6.830;2022-12-18T14:23:41;39.27;;;21.90;;
20150;SDS011;10236;49.638;6.830;2022-12-18T14:26:26;39.90;;;21.27;;
20150;SDS011;10236;49.638;6.830;2022-12-18T14:28:57;36.30;;;21.47;;
20150;SDS011;10236;49.638;6.830;2022-12-18T14:31:27;48.07;;;24.33;;
20150;SDS011;10236;49.638;6.830;2022-12-18T14:33:56;44.73;;;23.57;;
20150;SDS011;10236;49.638;6.830;2022-12-18T14:36:24;42.57;;;22.67;;
20150;SDS011;10236;49.638;6.830;2022-12-18T14:38:51;51.90;;;26.03;;
20150;SDS011;10236;49.638;6.830;2022-12-18T14:41:18;55.77;;;27.33;;
20150;SDS011;10236;49.638;6.830;2022-12-18T14:43:46;43.87;;;22.80;;
20150;SDS011;10236;49.638;6.830;2022-12-18T14:48:58;42.13;;;23.90;;
20150;SDS011;10236;49.638;6.830;2022-12-18T14:51:28;45.23;;;24.77;;
20150;SDS011;10236;49.638;6.830;2022-12-18T14:53:55;41.93;;;22.07;;
20150;SDS011;10236;49.638;6.830;2022-12-18T14:58:49;43.20;;;23.37;;
20150;SDS011;10236;49.638;6.830;2022-12-18T15:01:20;56.53;;;28.97;;
20150;SDS011;10236;49.638;6.830;2022-12-18T15:03:46;57.73;;;28.97;;
20150;SDS011;10236;49.638;6.830;2022-12-18T15:06:16;54.87;;;27.20;;
20150;SDS011;10236;49.638;6.830;2022-12-18T15:08:42;75.20;;;33.17;;
20150;SDS011;10236;49.638;6.830;2022-12-18T15:13:53;52.03;;;26.97;;
20150;SDS011;10236;49.638;6.830;2022-12-18T15:16:19;53.93;;;26.20;;
20150;SDS011;10236;49.638;6.830;2022-12-18T15:18:45;76.47;;;35.03;;
20150;SDS011;10236;49.638;6.830;2022-12-18T15:21:16;69.30;;;33.23;;
20150;SDS011;10236;49.638;6.830;2022-12-18T15:26:09;48.30;;;27.97;;
20150;SDS011;10236;49.638;6.830;2022-12-18T15:28:36;54.73;;;31.80;;
20150;SDS011;10236;49.638;6.830;2022-12-18T15:31:04;49.13;;;28.03;;
20150;SDS011;10236;49.638;6.830;2022-12-18T15:33:34;52.30;;;28.27;;
20150;SDS011;10236;49.638;6.830;2022-12-18T15:36:05;55.27;;;30.33;;
20150;SDS011;10236;49.638;6.830;2022-12-18T15:38:33;54.30;;;28.57;;
20150;SDS011;10236;49.638;6.830;2022-12-18T15:41:02;56.50;;;29.13;;
20150;SDS011;10236;49.638;6.830;2022-12-18T15:43:31;59.90;;;32.60;;
20150;SDS011;10236;49.638;6.830;2022-12-18T15:46:11;61.70;;;32.33;;
20150;SDS011;10236;49.638;6.830;2022-12-18T15:48:53;58.97;;;31.27;;
20150;SDS011;10236;49.638;6.830;2022-12-18T15:51:21;52.33;;;29.00;;
20150;SDS011;10236;49.638;6.830;2022-12-18T15:53:48;52.57;;;27.73;;
20150;SDS011;10236;49.638;6.830;2022-12-18T15:56:15;56.63;;;28.83;;
20150;SDS011;10236;49.638;6.830;2022-12-18T15:59:00;60.67;;;31.17;;
20150;SDS011;10236;49.638;6.830;2022-12-18T16:01:28;54.77;;;31.33;;
20150;SDS011;10236;49.638;6.830;2022-12-18T16:03:55;54.40;;;30.23;;
20150;SDS011;10236;49.638;6.830;2022-12-18T16:06:21;55.10;;;30.23;;
20150;SDS011;10236;49.638;6.830;2022-12-18T16:08:47;52.30;;;29.37;;
20150;SDS011;10236;49.638;6.830;2022-12-18T16:11:35;55.73;;;30.87;;
20150;SDS011;10236;49.638;6.830;2022-12-18T16:14:19;58.43;;;31.90;;
20150;SDS011;10236;49.638;6.830;2022-12-18T16:16:46;57.73;;;32.13;;
20150;SDS011;10236;49.638;6.830;2022-12-18T16:19:12;57.97;;;32.23;;
20150;SDS011;10236;49.638;6.830;2022-12-18T16:21:38;58.00;;;32.27;;
20150;SDS011;10236;49.638;6.830;2022-12-18T16:24:04;59.33;;;31.60;;
20150;SDS011;10236;49.638;6.830;2022-12-18T16:26:30;64.20;;;32.20;;
20150;SDS011;10236;49.638;6.830;2022-12-18T16:28:56;64.40;;;32.17;;
20150;SDS011;10236;49.638;6.830;2022-12-18T16:31:22;60.97;;;32.43;;
20150;SDS011;10236;49.638;6.830;2022-12-18T16:33:48;57.43;;;31.50;;
20150;SDS011;10236;49.638;6.830;2022-12-18T16:36:14;61.00;;;31.87;;
20150;SDS011;10236;49.638;6.830;2022-12-18T16:38:40;60.27;;;32.13;;
20150;SDS011;10236;49.638;6.830;2022-12-18T16:41:14;57.33;;;31.70;;
20150;SDS011;10236;49.638;6.830;2022-12-18T16:44:01;56.83;;;31.30;;
20150;SDS011;10236;49.638;6.830;2022-12-18T16:46:27;61.53;;;30.60;;
20150;SDS011;10236;49.638;6.830;2022-12-18T16:48:53;59.60;;;30.80;;
20150;SDS011;10236;49.638;6.830;2022-12-18T16:51:19;58.30;;;29.63;;
20150;SDS011;10236;49.638;6.830;2022-12-18T16:53:45;60.07;;;32.40;;
20150;SDS011;10236;49.638;6.830;2022-12-18T16:56:11;64.70;;;31.03;;
20150;SDS011;10236;49.638;6.830;2022-12-18T16:58:37;66.23;;;31.83;;